Time;durP1;ratioP1;P1;durP2;ratioP2;P2;SDS_P1;SDS_P2;PMS_P1;PMS_P2;Temp;Humidity;BMP_temperature;BMP_pressure;BME280_temperature;BME280_humidity;BME280_pressure;Samples;Min_cycle;Max_cycle;Signal;HPM_P1;HPM_P2
2023/06/25 00:01:38;;;;;;;10.80;6.40;;;;;;;;;;5033725;28;20133;-75
2023/06/25 00:04:04;;;;;;;9.55;5.93;;;;;;;;;;5014992;28;20057;-75
2023/06/25 00:06:30;;;;;;;9.73;5.30;;;;;;;;;;5039149;28;20044;-75
2023/06/25 00:08:57;;;;;;;9.23;5.93;;;;;;;;;;5051471;28;20045;-75
2023/06/25 00:11:23;;;;;;;10.55;6.35;;;;;;;;;;5043698;28;20504;-75
2023/06/25 00:13:50;;;;;;;9.80;5.80;;;;;;;;;;5034453;28;20050;-75
2023/06/25 00:16:16;;;;;;;8.23;5.97;;;;;;;;;;5018117;28;21012;-74
2023/06/25 00:18:42;;;;;;;10.57;6.15;;;;;;;;;;5042657;28;20041;-74
2023/06/25 00:21:08;;;;;;;12.30;6.78;;;;;;;;;;5036287;28;20041;-73
2023/06/25 00:23:34;;;;;;;10.15;6.00;;;;;;;;;;5053700;28;20049;-74
2023/06/25 00:26:00;;;;;;;9.20;6.28;;;;;;;;;;5054279;28;20051;-74
2023/06/25 00:28:26;;;;;;;12.32;6.50;;;;;;;;;;5053926;28;20083;-74
2023/06/25 00:30:52;;;;;;;9.15;6.13;;;;;;;;;;5054191;28;20115;-75
2023/06/25 00:33:18;;;;;;;9.98;6.15;;;;;;;;;;5054289;28;20204;-74
2023/06/25 00:35:50;;;;;;;9.93;6.20;;;;;;;;;;5036184;28;20124;-74
2023/06/25 00:38:17;;;;;;;8.43;6.43;;;;;;;;;;5032513;28;20049;-74
2023/06/25 00:40:43;;;;;;;9.80;6.78;;;;;;;;;;5043041;28;20053;-75
2023/06/25 00:43:09;;;;;;;11.57;7.10;;;;;;;;;;5052091;28;20490;-74
2023/06/25 00:45:35;;;;;;;10.65;7.25;;;;;;;;;;5053101;28;20128;-74
2023/06/25 00:48:04;;;;;;;10.15;7.25;;;;;;;;;;5053206;28;20353;-75
2023/06/25 00:50:30;;;;;;;12.80;7.75;;;;;;;;;;5032546;28;20148;-74
2023/06/25 00:52:57;;;;;;;10.60;7.40;;;;;;;;;;5032278;28;20374;-75
2023/06/25 00:55:23;;;;;;;10.00;7.05;;;;;;;;;;5042653;28;20570;-75
2023/06/25 00:57:51;;;;;;;10.32;7.43;;;;;;;;;;5048853;28;20053;-74
2023/06/25 01:00:18;;;;;;;10.20;7.38;;;;;;;;;;5050997;28;20402;-75
2023/06/25 01:02:51;;;;;;;11.32;7.20;;;;;;;;;;5052382;28;20103;-75
2023/06/25 01:05:17;;;;;;;10.68;6.40;;;;;;;;;;5043252;28;20045;-74
2023/06/25 01:07:44;;;;;;;11.52;6.78;;;;;;;;;;5034271;28;20112;-74
2023/06/25 01:10:11;;;;;;;8.93;6.57;;;;;;;;;;5032611;28;20057;-74
2023/06/25 01:12:37;;;;;;;8.93;6.10;;;;;;;;;;5034129;28;20033;-75
2023/06/25 01:15:04;;;;;;;10.90;6.65;;;;;;;;;;5052508;28;20052;-75
2023/06/25 01:17:30;;;;;;;9.45;6.97;;;;;;;;;;5051149;28;20041;-74
2023/06/25 01:19:57;;;;;;;13.15;7.35;;;;;;;;;;5052353;28;20067;-74
2023/06/25 01:22:29;;;;;;;11.43;7.50;;;;;;;;;;5051760;28;20044;-74
2023/06/25 01:24:56;;;;;;;10.13;7.45;;;;;;;;;;5052127;28;20041;-74
2023/06/25 01:27:22;;;;;;;10.65;7.20;;;;;;;;;;5052548;28;20095;-75
2023/06/25 01:29:49;;;;;;;10.82;6.95;;;;;;;;;;5033950;28;20539;-74
2023/06/25 01:32:15;;;;;;;7.95;6.38;;;;;;;;;;5050903;28;20045;-74
2023/06/25 01:34:41;;;;;;;9.45;6.72;;;;;;;;;;5052103;28;20049;-74
2023/06/25 01:37:08;;;;;;;9.77;6.55;;;;;;;;;;5035107;28;20107;-74
2023/06/25 01:39:34;;;;;;;8.77;6.72;;;;;;;;;;5049924;28;20063;-74
2023/06/25 01:42:00;;;;;;;11.55;6.50;;;;;;;;;;5043430;28;20135;-75
2023/06/25 01:44:28;;;;;;;11.40;7.18;;;;;;;;;;5048708;28;20116;-74
2023/06/25 01:46:54;;;;;;;12.40;6.95;;;;;;;;;;5021504;28;20398;-74
2023/06/25 01:49:20;;;;;;;11.77;7.38;;;;;;;;;;5025002;28;20485;-74
2023/06/25 01:51:46;;;;;;;11.45;7.60;;;;;;;;;;5052199;28;20045;-74
2023/06/25 01:54:12;;;;;;;9.15;7.10;;;;;;;;;;5052287;28;20179;-74
2023/06/25 01:56:38;;;;;;;10.65;8.18;;;;;;;;;;5034618;28;20102;-74
2023/06/25 01:59:05;;;;;;;11.45;7.80;;;;;;;;;;5036884;28;20390;-74
2023/06/25 02:01:31;;;;;;;11.63;8.55;;;;;;;;;;5031635;28;20053;-75
2023/06/25 02:03:57;;;;;;;10.95;8.23;;;;;;;;;;5030842;28;20124;-75
2023/06/25 02:06:24;;;;;;;13.75;9.45;;;;;;;;;;5032040;28;20082;-75
2023/06/25 02:08:50;;;;;;;13.95;9.95;;;;;;;;;;5032873;28;20057;-75
2023/06/25 02:11:16;;;;;;;15.18;10.07;;;;;;;;;;5035500;28;20044;-75
2023/06/25 02:13:42;;;;;;;12.63;9.85;;;;;;;;;;5031886;28;20091;-75
2023/06/25 02:16:08;;;;;;;16.45;9.80;;;;;;;;;;5032269;28;20050;-75
2023/06/25 02:18:35;;;;;;;13.68;10.48;;;;;;;;;;5032006;28;20034;-75
2023/06/25 02:21:02;;;;;;;12.98;9.70;;;;;;;;;;5014106;28;20132;-75
2023/06/25 02:23:28;;;;;;;12.40;9.07;;;;;;;;;;5031728;28;20516;-75
2023/06/25 02:25:54;;;;;;;12.52;9.07;;;;;;;;;;5032011;28;20073;-74
2023/06/25 02:28:20;;;;;;;12.25;10.20;;;;;;;;;;5031923;28;20092;-75
2023/06/25 02:30:46;;;;;;;14.73;10.15;;;;;;;;;;5032214;28;20160;-75
2023/06/25 02:33:12;;;;;;;11.98;9.95;;;;;;;;;;5030548;28;20049;-75
2023/06/25 02:35:40;;;;;;;13.63;10.15;;;;;;;;;;5031758;28;20103;-75
2023/06/25 02:38:06;;;;;;;15.07;10.48;;;;;;;;;;5031850;28;20053;-74
2023/06/25 02:40:32;;;;;;;12.85;9.57;;;;;;;;;;5040472;28;20084;-75
2023/06/25 02:42:58;;;;;;;14.23;11.13;;;;;;;;;;5041029;28;20084;-75
2023/06/25 02:45:24;;;;;;;12.13;9.60;;;;;;;;;;5020700;28;20543;-75
2023/06/25 02:47:50;;;;;;;13.02;10.23;;;;;;;;;;5034550;28;20110;-75
2023/06/25 02:50:17;;;;;;;14.98;10.38;;;;;;;;;;5047584;28;20037;-75
2023/06/25 02:52:43;;;;;;;12.40;10.07;;;;;;;;;;5041548;28;20462;-76
2023/06/25 02:55:10;;;;;;;14.65;9.82;;;;;;;;;;5017522;28;20064;-75
2023/06/25 02:57:36;;;;;;;13.32;10.35;;;;;;;;;;5036488;28;20041;-75
2023/06/25 03:00:04;;;;;;;15.57;10.73;;;;;;;;;;5035258;28;20493;-75
2023/06/25 03:02:31;;;;;;;14.82;10.30;;;;;;;;;;5017887;28;20387;-75
2023/06/25 03:04:57;;;;;;;13.27;10.20;;;;;;;;;;5024071;28;20055;-75
2023/06/25 03:07:23;;;;;;;16.55;10.90;;;;;;;;;;5054585;28;20049;-75
2023/06/25 03:09:49;;;;;;;14.70;10.90;;;;;;;;;;5048426;28;20587;-75
2023/06/25 03:12:15;;;;;;;17.90;10.60;;;;;;;;;;5046907;28;20053;-75
2023/06/25 03:14:42;;;;;;;14.10;10.30;;;;;;;;;;5030967;28;20038;-74
2023/06/25 03:17:09;;;;;;;13.50;10.60;;;;;;;;;;5048338;28;20417;-74
2023/06/25 03:19:35;;;;;;;14.18;10.23;;;;;;;;;;5054847;28;20048;-74
2023/06/25 03:22:01;;;;;;;14.50;10.48;;;;;;;;;;5034729;28;20080;-75
2023/06/25 03:24:27;;;;;;;13.60;9.80;;;;;;;;;;5017370;28;20041;-74
2023/06/25 03:26:53;;;;;;;15.05;11.20;;;;;;;;;;5034945;28;20095;-75
2023/06/25 03:29:20;;;;;;;16.70;10.90;;;;;;;;;;5034459;28;20110;-74
2023/06/25 03:31:46;;;;;;;13.88;9.95;;;;;;;;;;5033575;28;20458;-75
2023/06/25 03:34:12;;;;;;;15.80;10.18;;;;;;;;;;5054752;28;20052;-75
2023/06/25 03:36:38;;;;;;;16.08;11.05;;;;;;;;;;5053846;28;20045;-75
2023/06/25 03:39:04;;;;;;;16.38;10.90;;;;;;;;;;5053461;28;20112;-75
2023/06/25 03:41:30;;;;;;;14.43;10.77;;;;;;;;;;5054518;28;20381;-75
2023/06/25 03:43:56;;;;;;;15.70;11.27;;;;;;;;;;5054442;28;20041;-75
2023/06/25 03:46:22;;;;;;;14.25;10.57;;;;;;;;;;5054590;28;20052;-75
2023/06/25 03:48:49;;;;;;;14.10;10.50;;;;;;;;;;5054311;28;20041;-75
2023/06/25 03:51:18;;;;;;;15.27;10.85;;;;;;;;;;5054218;28;20492;-75
2023/06/25 03:53:44;;;;;;;14.90;11.40;;;;;;;;;;5036868;28;20076;-75
2023/06/25 03:56:10;;;;;;;13.70;10.50;;;;;;;;;;5054550;28;20041;-75
2023/06/25 03:58:36;;;;;;;13.38;10.65;;;;;;;;;;5052634;28;20049;-75
2023/06/25 04:01:03;;;;;;;15.82;11.10;;;;;;;;;;5017031;28;20096;-75
2023/06/25 04:03:29;;;;;;;17.27;11.35;;;;;;;;;;5054287;28;20118;-75
2023/06/25 04:05:55;;;;;;;14.07;11.30;;;;;;;;;;5052184;28;20099;-75
2023/06/25 04:08:21;;;;;;;15.52;11.10;;;;;;;;;;5051953;28;20041;-75
2023/06/25 04:10:47;;;;;;;13.73;10.40;;;;;;;;;;5016338;28;20049;-76
2023/06/25 04:13:13;;;;;;;14.43;10.10;;;;;;;;;;5017239;28;20080;-75
2023/06/25 04:15:39;;;;;;;14.65;9.48;;;;;;;;;;5017109;28;20059;-75
2023/06/25 04:18:05;;;;;;;15.10;10.32;;;;;;;;;;5034084;28;20077;-75
2023/06/25 04:20:31;;;;;;;12.80;9.80;;;;;;;;;;5047860;28;20080;-75
2023/06/25 04:22:58;;;;;;;16.40;10.07;;;;;;;;;;5050628;28;20436;-75
2023/06/25 04:25:24;;;;;;;13.50;10.18;;;;;;;;;;5033555;28;20053;-75
2023/06/25 04:27:50;;;;;;;13.52;9.63;;;;;;;;;;5033803;28;20455;-75
2023/06/25 04:30:16;;;;;;;12.77;9.30;;;;;;;;;;5033188;28;20049;-75
2023/06/25 04:32:42;;;;;;;14.55;9.60;;;;;;;;;;5036038;28;20045;-74
2023/06/25 04:35:09;;;;;;;13.60;9.75;;;;;;;;;;5048060;28;20045;-74
2023/06/25 04:37:35;;;;;;;12.02;8.93;;;;;;;;;;5056732;28;20405;-74
2023/06/25 04:40:05;;;;;;;14.13;9.60;;;;;;;;;;5022587;28;20591;-74
2023/06/25 04:42:31;;;;;;;11.80;9.10;;;;;;;;;;5034037;28;20049;-75
2023/06/25 04:44:57;;;;;;;14.90;9.43;;;;;;;;;;5053286;28;20115;-75
2023/06/25 04:47:23;;;;;;;12.93;9.43;;;;;;;;;;5053167;28;20048;-74
2023/06/25 04:49:49;;;;;;;13.43;9.07;;;;;;;;;;5043933;28;20085;-75
2023/06/25 04:52:19;;;;;;;13.00;8.98;;;;;;;;;;5033310;28;20046;-75
2023/06/25 04:54:47;;;;;;;12.55;8.70;;;;;;;;;;5052425;28;20057;-75
2023/06/25 04:57:14;;;;;;;13.27;8.70;;;;;;;;;;5053409;28;20047;-75
2023/06/25 04:59:40;;;;;;;12.70;8.60;;;;;;;;;;5052059;28;20505;-74
2023/06/25 05:02:06;;;;;;;13.35;8.10;;;;;;;;;;5052206;28;20128;-75
2023/06/25 05:04:32;;;;;;;11.90;8.40;;;;;;;;;;5033160;28;20040;-75
2023/06/25 05:06:58;;;;;;;11.82;8.10;;;;;;;;;;5041623;28;20041;-75
2023/06/25 05:09:24;;;;;;;13.38;7.95;;;;;;;;;;5019407;28;20049;-74
2023/06/25 05:11:51;;;;;;;11.32;7.80;;;;;;;;;;5050567;28;20531;-74
2023/06/25 05:14:17;;;;;;;12.80;7.80;;;;;;;;;;5031093;28;20047;-75
2023/06/25 05:16:43;;;;;;;12.93;7.57;;;;;;;;;;5039637;28;20059;-75
2023/06/25 05:19:09;;;;;;;10.23;7.57;;;;;;;;;;5053365;28;20052;-75
2023/06/25 05:21:35;;;;;;;10.38;7.47;;;;;;;;;;5038594;28;20038;-75
2023/06/25 05:24:05;;;;;;;12.15;7.40;;;;;;;;;;5032861;28;20068;-75
2023/06/25 05:26:31;;;;;;;10.15;7.43;;;;;;;;;;5033110;28;20037;-75
2023/06/25 05:28:59;;;;;;;10.88;7.95;;;;;;;;;;5032705;28;20045;-74
2023/06/25 05:31:25;;;;;;;11.10;7.68;;;;;;;;;;5033590;28;20053;-80
2023/06/25 05:33:51;;;;;;;12.45;8.07;;;;;;;;;;5046441;28;20438;-80
2023/06/25 05:36:17;;;;;;;9.80;7.30;;;;;;;;;;5053276;28;20106;-79
2023/06/25 05:38:43;;;;;;;9.55;7.25;;;;;;;;;;5033573;28;20048;-80
2023/06/25 05:41:09;;;;;;;11.68;7.22;;;;;;;;;;5039812;28;20560;-80
2023/06/25 05:43:35;;;;;;;9.93;7.28;;;;;;;;;;5035224;28;20053;-80
2023/06/25 05:46:02;;;;;;;12.45;8.30;;;;;;;;;;5035176;28;20123;-80
2023/06/25 05:48:28;;;;;;;10.40;7.43;;;;;;;;;;5051702;28;20159;-80
2023/06/25 05:50:54;;;;;;;10.18;7.05;;;;;;;;;;5053199;28;20143;-80
2023/06/25 05:53:24;;;;;;;10.45;7.60;;;;;;;;;;5050974;28;20037;-78
2023/06/25 05:55:50;;;;;;;11.13;7.03;;;;;;;;;;5042947;28;20095;-79
2023/06/25 05:58:16;;;;;;;9.80;7.15;;;;;;;;;;5052976;28;20041;-79
2023/06/25 06:00:42;;;;;;;12.50;7.10;;;;;;;;;;5051761;28;20055;-80
2023/06/25 06:03:09;;;;;;;9.05;6.93;;;;;;;;;;5052866;28;20478;-80
2023/06/25 06:05:35;;;;;;;11.75;6.97;;;;;;;;;;5034662;28;20048;-80
2023/06/25 06:08:01;;;;;;;9.07;6.50;;;;;;;;;;5033822;28;20061;-79
2023/06/25 06:10:27;;;;;;;8.45;6.07;;;;;;;;;;5033532;28;20053;-79
2023/06/25 06:12:53;;;;;;;10.35;7.47;;;;;;;;;;5032347;28;20133;-79
2023/06/25 06:15:19;;;;;;;11.00;6.72;;;;;;;;;;5032198;28;20079;-78
2023/06/25 06:17:45;;;;;;;9.10;6.85;;;;;;;;;;5014139;28;20080;-79
2023/06/25 06:20:11;;;;;;;9.70;6.88;;;;;;;;;;5052574;28;20408;-79
2023/06/25 06:22:38;;;;;;;10.13;6.90;;;;;;;;;;5056527;28;20052;-79
2023/06/25 06:25:04;;;;;;;15.50;6.85;;;;;;;;;;5037692;28;20041;-79
2023/06/25 06:27:30;;;;;;;10.20;7.70;;;;;;;;;;5056771;28;20048;-78
2023/06/25 06:29:56;;;;;;;11.45;7.63;;;;;;;;;;5055443;28;20049;-79
2023/06/25 06:32:22;;;;;;;8.85;7.10;;;;;;;;;;5055513;28;20048;-79
2023/06/25 06:34:49;;;;;;;10.68;6.38;;;;;;;;;;5056073;28;20041;-78
2023/06/25 06:37:15;;;;;;;8.07;6.22;;;;;;;;;;5055181;28;20385;-79
2023/06/25 06:39:41;;;;;;;11.65;6.40;;;;;;;;;;5047266;28;20047;-79
2023/06/25 06:42:07;;;;;;;10.57;7.07;;;;;;;;;;5034730;28;20489;-79
2023/06/25 06:44:33;;;;;;;9.63;6.18;;;;;;;;;;5036097;28;20037;-79
2023/06/25 06:46:59;;;;;;;12.30;7.45;;;;;;;;;;5024431;28;20095;-79
2023/06/25 06:49:25;;;;;;;10.63;8.10;;;;;;;;;;5054665;28;20087;-79
2023/06/25 06:51:52;;;;;;;11.55;8.32;;;;;;;;;;5055864;28;20044;-78
2023/06/25 06:54:18;;;;;;;10.80;7.95;;;;;;;;;;5038294;28;20147;-79
2023/06/25 06:56:44;;;;;;;12.10;7.53;;;;;;;;;;5038693;28;20040;-79
2023/06/25 06:59:10;;;;;;;9.00;7.07;;;;;;;;;;5038064;28;20595;-78
2023/06/25 07:01:36;;;;;;;10.52;7.80;;;;;;;;;;5053944;28;20052;-79
2023/06/25 07:04:02;;;;;;;11.50;8.57;;;;;;;;;;5054688;28;20037;-79
2023/06/25 07:06:28;;;;;;;11.43;8.75;;;;;;;;;;5055832;28;20140;-79
2023/06/25 07:08:54;;;;;;;11.93;9.25;;;;;;;;;;5055318;28;20584;-79
2023/06/25 07:11:20;;;;;;;9.93;8.07;;;;;;;;;;5037869;28;20045;-80
2023/06/25 07:13:47;;;;;;;11.75;9.18;;;;;;;;;;5037954;28;20073;-80
2023/06/25 07:16:14;;;;;;;14.02;9.00;;;;;;;;;;5038237;28;20099;-80
2023/06/25 07:18:40;;;;;;;13.38;9.23;;;;;;;;;;5056176;28;20053;-80
2023/06/25 07:21:06;;;;;;;10.98;8.52;;;;;;;;;;5060229;28;20128;-80
2023/06/25 07:23:33;;;;;;;11.15;8.00;;;;;;;;;;5050118;28;20475;-80
2023/06/25 07:25:59;;;;;;;12.60;8.43;;;;;;;;;;5037837;28;20045;-80
2023/06/25 07:28:25;;;;;;;12.35;8.20;;;;;;;;;;5019149;28;20042;-80
2023/06/25 07:30:51;;;;;;;11.75;7.80;;;;;;;;;;5033983;28;20042;-81
2023/06/25 07:33:20;;;;;;;10.98;8.15;;;;;;;;;;5053377;28;20040;-83
2023/06/25 07:35:47;;;;;;;13.27;9.77;;;;;;;;;;5042624;28;20406;-79
2023/06/25 07:38:13;;;;;;;12.48;9.05;;;;;;;;;;5035202;28;20049;-80
2023/06/25 07:40:39;;;;;;;10.40;7.63;;;;;;;;;;5035108;28;20053;-80
2023/06/25 07:43:05;;;;;;;9.65;7.47;;;;;;;;;;5035290;28;20052;-81
2023/06/25 07:45:32;;;;;;;10.30;7.97;;;;;;;;;;5045089;28;20045;-80
2023/06/25 07:47:59;;;;;;;14.15;10.00;;;;;;;;;;5054809;28;20041;-80
2023/06/25 07:50:25;;;;;;;15.95;10.40;;;;;;;;;;5049260;28;20041;-80
2023/06/25 07:52:51;;;;;;;12.70;8.85;;;;;;;;;;5030053;28;20033;-79
2023/06/25 07:55:17;;;;;;;13.90;9.30;;;;;;;;;;5028385;28;20053;-80
2023/06/25 07:57:43;;;;;;;11.95;9.00;;;;;;;;;;5042435;28;20132;-80
2023/06/25 08:00:11;;;;;;;14.50;9.45;;;;;;;;;;5043787;28;20235;-78
2023/06/25 08:02:37;;;;;;;13.65;9.38;;;;;;;;;;5046801;28;20049;-79
2023/06/25 08:05:04;;;;;;;10.93;8.30;;;;;;;;;;5046860;28;20044;-79
2023/06/25 08:07:30;;;;;;;10.88;8.88;;;;;;;;;;5044384;28;20148;-79
2023/06/25 08:09:56;;;;;;;10.05;8.25;;;;;;;;;;5028197;28;20619;-78
2023/06/25 08:12:22;;;;;;;10.45;7.43;;;;;;;;;;5044703;28;20115;-78
2023/06/25 08:14:48;;;;;;;12.73;9.55;;;;;;;;;;5047706;28;20097;-79
2023/06/25 08:17:14;;;;;;;10.25;9.15;;;;;;;;;;5044980;28;20045;-79
2023/06/25 08:19:40;;;;;;;11.38;8.73;;;;;;;;;;5040156;28;20041;-80
2023/06/25 08:22:07;;;;;;;11.05;7.90;;;;;;;;;;5047161;28;20045;-80
2023/06/25 08:24:33;;;;;;;10.95;8.93;;;;;;;;;;5044642;28;20049;-79
2023/06/25 08:26:59;;;;;;;9.07;7.93;;;;;;;;;;5045641;28;20052;-79
2023/06/25 08:29:26;;;;;;;9.45;7.38;;;;;;;;;;5025498;28;20042;-79
2023/06/25 08:31:52;;;;;;;14.27;8.02;;;;;;;;;;5025686;28;20079;-79
2023/06/25 08:34:18;;;;;;;9.32;8.05;;;;;;;;;;5046976;28;20083;-79
2023/06/25 08:36:44;;;;;;;10.05;8.20;;;;;;;;;;5049234;28;20102;-78
2023/06/25 08:39:10;;;;;;;9.77;8.35;;;;;;;;;;5046528;28;20052;-79
2023/06/25 08:41:36;;;;;;;9.85;8.35;;;;;;;;;;5067535;28;20039;-79
2023/06/25 08:44:02;;;;;;;8.60;7.70;;;;;;;;;;5073082;28;20062;-79
2023/06/25 08:46:29;;;;;;;10.82;7.82;;;;;;;;;;5061846;28;20051;-80
2023/06/25 08:48:56;;;;;;;10.10;7.90;;;;;;;;;;5049602;28;20048;-79
2023/06/25 08:51:23;;;;;;;12.15;8.25;;;;;;;;;;5019658;28;20103;-79
2023/06/25 08:53:49;;;;;;;8.55;7.38;;;;;;;;;;5053839;28;20107;-80
2023/06/25 08:56:16;;;;;;;9.23;6.88;;;;;;;;;;5053731;28;20045;-79
2023/06/25 08:58:42;;;;;;;10.57;7.47;;;;;;;;;;5019535;28;20037;-81
2023/06/25 09:01:08;;;;;;;10.23;7.35;;;;;;;;;;5034911;28;20099;-80
2023/06/25 09:03:35;;;;;;;9.63;6.63;;;;;;;;;;5034948;28;20055;-81
2023/06/25 09:06:01;;;;;;;10.05;6.53;;;;;;;;;;5034916;28;20056;-80
2023/06/25 09:08:27;;;;;;;8.15;6.30;;;;;;;;;;5035887;28;20049;-81
2023/06/25 09:10:54;;;;;;;7.82;5.80;;;;;;;;;;5035490;28;20386;-80
2023/06/25 09:13:24;;;;;;;7.80;6.07;;;;;;;;;;5034606;28;20048;-80
2023/06/25 09:15:50;;;;;;;7.43;5.57;;;;;;;;;;5053214;28;20401;-81
2023/06/25 09:18:20;;;;;;;8.02;5.35;;;;;;;;;;5035909;28;20124;-81
2023/06/25 09:20:47;;;;;;;7.40;5.47;;;;;;;;;;5049440;28;20470;-81
2023/06/25 09:23:18;;;;;;;5.18;4.50;;;;;;;;;;5031987;28;20045;-79
2023/06/25 09:25:45;;;;;;;8.32;5.70;;;;;;;;;;5031877;28;20041;-81
2023/06/25 09:28:11;;;;;;;6.75;5.70;;;;;;;;;;5015515;28;20052;-81
2023/06/25 09:30:39;;;;;;;7.60;5.45;;;;;;;;;;5020112;28;20041;-80
2023/06/25 09:33:06;;;;;;;7.25;5.03;;;;;;;;;;5044688;28;20496;-81
2023/06/25 09:35:33;;;;;;;6.07;4.75;;;;;;;;;;5035427;28;20140;-80
2023/06/25 09:38:00;;;;;;;6.03;5.03;;;;;;;;;;5053153;28;20099;-81
2023/06/25 09:40:26;;;;;;;11.15;7.05;;;;;;;;;;5035151;28;20408;-81
2023/06/25 09:42:56;;;;;;;7.85;5.50;;;;;;;;;;5053012;28;20045;-81
2023/06/25 09:45:23;;;;;;;6.90;5.57;;;;;;;;;;5041254;28;20042;-81
2023/06/25 09:47:50;;;;;;;8.93;6.55;;;;;;;;;;5035219;28;20057;-82
2023/06/25 09:50:20;;;;;;;7.55;6.13;;;;;;;;;;5033727;28;20098;-81
2023/06/25 09:52:59;;;;;;;10.32;6.60;;;;;;;;;;5032315;28;20041;-81
2023/06/25 09:55:27;;;;;;;7.70;6.25;;;;;;;;;;5032749;28;20053;-81
2023/06/25 09:57:54;;;;;;;6.88;5.65;;;;;;;;;;5014979;28;20402;-81
2023/06/25 10:00:21;;;;;;;9.20;5.63;;;;;;;;;;5032826;28;20048;-82
2023/06/25 10:02:48;;;;;;;14.70;5.82;;;;;;;;;;5031695;28;20049;-81
2023/06/25 10:05:14;;;;;;;9.25;5.68;;;;;;;;;;5015054;28;20123;-82
2023/06/25 10:07:40;;;;;;;7.30;5.60;;;;;;;;;;5033157;28;20049;-82
2023/06/25 10:10:07;;;;;;;6.35;5.20;;;;;;;;;;5014740;28;20064;-82
2023/06/25 10:12:34;;;;;;;6.88;5.47;;;;;;;;;;5015377;28;20053;-82
2023/06/25 10:15:06;;;;;;;8.85;6.35;;;;;;;;;;5015042;28;20045;-82
2023/06/25 10:17:32;;;;;;;7.75;5.90;;;;;;;;;;5014247;28;20132;-81
2023/06/25 10:20:01;;;;;;;9.68;5.65;;;;;;;;;;5038194;28;20052;-80
2023/06/25 10:22:28;;;;;;;7.00;5.07;;;;;;;;;;5051785;28;20080;-82
2023/06/25 10:24:55;;;;;;;7.13;5.20;;;;;;;;;;5057247;28;20049;-81
2023/06/25 10:27:21;;;;;;;7.70;5.00;;;;;;;;;;5037442;28;20374;-80
2023/06/25 10:29:48;;;;;;;7.80;5.00;;;;;;;;;;5034437;28;20037;-79
2023/06/25 10:32:14;;;;;;;7.93;5.32;;;;;;;;;;5032200;28;20481;-79
2023/06/25 10:34:40;;;;;;;8.98;6.10;;;;;;;;;;5051769;28;20495;-80
2023/06/25 10:37:07;;;;;;;8.43;5.07;;;;;;;;;;5034616;28;20057;-80
2023/06/25 10:39:40;;;;;;;8.63;5.18;;;;;;;;;;5052204;28;20045;-78
2023/06/25 10:42:06;;;;;;;8.00;5.75;;;;;;;;;;5052383;28;20049;-78
2023/06/25 10:44:33;;;;;;;7.28;4.90;;;;;;;;;;5052278;28;20053;-81
2023/06/25 10:47:03;;;;;;;8.73;5.03;;;;;;;;;;5034885;28;20397;-82
2023/06/25 10:49:31;;;;;;;9.23;5.70;;;;;;;;;;5052006;28;20044;-82
2023/06/25 10:52:00;;;;;;;8.10;5.70;;;;;;;;;;5051627;28;20041;-82
2023/06/25 10:54:26;;;;;;;6.03;4.43;;;;;;;;;;5050424;28;20124;-82
2023/06/25 10:57:05;;;;;;;5.47;4.00;;;;;;;;;;5050456;28;20411;-82
2023/06/25 10:59:31;;;;;;;5.28;4.43;;;;;;;;;;5031488;28;20128;-82
2023/06/25 11:02:07;;;;;;;6.95;4.57;;;;;;;;;;5034637;28;20458;-82
2023/06/25 11:04:34;;;;;;;5.63;4.30;;;;;;;;;;5032416;28;20042;-82
2023/06/25 11:07:00;;;;;;;7.18;4.70;;;;;;;;;;5034560;28;20101;-82
2023/06/25 11:09:27;;;;;;;5.85;4.47;;;;;;;;;;5037500;28;20092;-82
2023/06/25 11:11:53;;;;;;;7.55;4.20;;;;;;;;;;5054575;28;20048;-83
2023/06/25 11:14:19;;;;;;;6.38;4.22;;;;;;;;;;5054686;28;20118;-82
2023/06/25 11:16:48;;;;;;;8.32;4.38;;;;;;;;;;5056105;28;20433;-82
2023/06/25 11:19:14;;;;;;;6.45;4.47;;;;;;;;;;5037777;28;20143;-82
2023/06/25 11:21:40;;;;;;;5.68;4.30;;;;;;;;;;5055246;28;20068;-81
2023/06/25 11:24:10;;;;;;;5.15;4.00;;;;;;;;;;5049940;28;20045;-81
2023/06/25 11:26:40;;;;;;;5.40;3.80;;;;;;;;;;5055744;28;20045;-81
2023/06/25 11:29:07;;;;;;;5.47;3.65;;;;;;;;;;5054895;28;20044;-82
2023/06/25 11:31:42;;;;;;;5.65;3.78;;;;;;;;;;5054342;28;20049;-81
2023/06/25 11:34:10;;;;;;;4.88;3.75;;;;;;;;;;5055710;28;20091;-84
2023/06/25 11:36:37;;;;;;;5.65;3.60;;;;;;;;;;5055183;28;20055;-74
2023/06/25 11:39:07;;;;;;;6.10;3.50;;;;;;;;;;5053744;28;20137;-73
2023/06/25 11:41:33;;;;;;;4.10;3.10;;;;;;;;;;5027098;28;20072;-73
2023/06/25 11:43:59;;;;;;;5.03;3.30;;;;;;;;;;5032097;28;20096;-74
2023/06/25 11:46:25;;;;;;;3.40;2.65;;;;;;;;;;5031066;28;20119;-73
2023/06/25 11:48:51;;;;;;;3.60;2.70;;;;;;;;;;5034948;28;20456;-73
2023/06/25 11:51:18;;;;;;;4.75;3.03;;;;;;;;;;5036411;28;20053;-73
2023/06/25 11:53:44;;;;;;;4.22;2.83;;;;;;;;;;5052779;28;20083;-74
2023/06/25 11:56:10;;;;;;;3.95;2.88;;;;;;;;;;5054232;28;20094;-74
2023/06/25 11:58:36;;;;;;;5.75;3.38;;;;;;;;;;5036322;28;20091;-74
2023/06/25 12:01:03;;;;;;;4.60;3.20;;;;;;;;;;5054222;28;20120;-73
2023/06/25 12:03:30;;;;;;;4.63;3.03;;;;;;;;;;5036256;28;20132;-74
2023/06/25 12:05:56;;;;;;;4.38;3.10;;;;;;;;;;5054130;28;20053;-74
2023/06/25 12:08:22;;;;;;;3.90;3.30;;;;;;;;;;5050541;28;20045;-74
2023/06/25 12:10:48;;;;;;;4.25;2.70;;;;;;;;;;5042022;28;20417;-74
2023/06/25 12:13:14;;;;;;;3.60;2.67;;;;;;;;;;5054094;28;20214;-74
2023/06/25 12:15:40;;;;;;;6.75;3.00;;;;;;;;;;5044637;28;20536;-73
2023/06/25 12:18:06;;;;;;;3.78;2.67;;;;;;;;;;5016291;28;20516;-73
2023/06/25 12:20:33;;;;;;;4.05;2.70;;;;;;;;;;5033517;28;20048;-73
2023/06/25 12:22:59;;;;;;;3.33;2.63;;;;;;;;;;5033620;28;20502;-73
2023/06/25 12:25:25;;;;;;;4.45;2.67;;;;;;;;;;5017781;28;20572;-73
2023/06/25 12:27:53;;;;;;;4.97;3.00;;;;;;;;;;5053684;28;20041;-73
2023/06/25 12:30:19;;;;;;;4.20;3.00;;;;;;;;;;5049938;28;20056;-73
2023/06/25 12:32:46;;;;;;;4.47;2.75;;;;;;;;;;5033850;28;20057;-74
2023/06/25 12:35:12;;;;;;;4.22;2.70;;;;;;;;;;5033432;28;20059;-73
2023/06/25 12:37:38;;;;;;;4.63;2.92;;;;;;;;;;5033792;28;20045;-74
2023/06/25 12:40:05;;;;;;;5.35;2.80;;;;;;;;;;5015949;28;20037;-73
2023/06/25 12:42:31;;;;;;;4.22;2.85;;;;;;;;;;5018983;28;20121;-74
2023/06/25 12:44:58;;;;;;;3.95;2.83;;;;;;;;;;5053321;28;20104;-73
2023/06/25 12:47:24;;;;;;;4.97;3.30;;;;;;;;;;5049218;28;20339;-74
2023/06/25 12:49:50;;;;;;;4.55;3.08;;;;;;;;;;5046426;28;20049;-74
2023/06/25 12:52:16;;;;;;;4.60;2.83;;;;;;;;;;5050100;28;20056;-73
2023/06/25 12:54:43;;;;;;;4.80;2.80;;;;;;;;;;5049359;28;20038;-74
2023/06/25 12:57:09;;;;;;;5.00;2.90;;;;;;;;;;5052042;28;20132;-73
2023/06/25 12:59:35;;;;;;;5.28;2.78;;;;;;;;;;5028618;28;20041;-74
2023/06/25 13:02:01;;;;;;;4.72;3.03;;;;;;;;;;5043809;28;20123;-73
2023/06/25 13:04:27;;;;;;;3.88;2.80;;;;;;;;;;5055851;28;20052;-73
2023/06/25 13:06:53;;;;;;;4.95;3.38;;;;;;;;;;5049109;28;20041;-73
2023/06/25 13:09:20;;;;;;;5.40;3.08;;;;;;;;;;5041209;28;20048;-74
2023/06/25 13:11:46;;;;;;;6.63;3.33;;;;;;;;;;5041717;28;20041;-73
2023/06/25 13:14:12;;;;;;;4.78;3.22;;;;;;;;;;5041886;28;20127;-73
2023/06/25 13:16:38;;;;;;;5.43;3.47;;;;;;;;;;5043703;28;20097;-74
2023/06/25 13:19:04;;;;;;;5.45;3.72;;;;;;;;;;5032817;28;20041;-74
2023/06/25 13:21:30;;;;;;;5.38;3.30;;;;;;;;;;5043936;28;20048;-74
2023/06/25 13:23:56;;;;;;;4.72;3.35;;;;;;;;;;5026432;28;20398;-75
2023/06/25 13:26:23;;;;;;;4.80;3.58;;;;;;;;;;5040164;28;20048;-74
2023/06/25 13:28:49;;;;;;;4.30;3.38;;;;;;;;;;5042767;28;20037;-74
2023/06/25 13:31:15;;;;;;;5.25;3.13;;;;;;;;;;5048247;28;20038;-74
2023/06/25 13:33:41;;;;;;;4.25;3.35;;;;;;;;;;5043702;28;20041;-74
2023/06/25 13:36:08;;;;;;;5.13;3.88;;;;;;;;;;5041099;28;20041;-74
2023/06/25 13:38:34;;;;;;;5.85;3.83;;;;;;;;;;5045861;28;20069;-73
2023/06/25 13:41:00;;;;;;;6.00;3.85;;;;;;;;;;5045793;28;20055;-73
2023/06/25 13:43:26;;;;;;;5.43;3.42;;;;;;;;;;5052427;28;20067;-73
2023/06/25 13:45:52;;;;;;;5.53;3.97;;;;;;;;;;5048572;28;20132;-74
2023/06/25 13:48:19;;;;;;;5.90;3.58;;;;;;;;;;5043130;28;20037;-74
2023/06/25 13:50:45;;;;;;;4.70;3.75;;;;;;;;;;5042333;28;20113;-74
2023/06/25 13:53:11;;;;;;;6.38;4.00;;;;;;;;;;5045697;28;20072;-74
2023/06/25 13:55:37;;;;;;;6.65;3.45;;;;;;;;;;5048528;28;20037;-74
2023/06/25 13:58:03;;;;;;;5.40;3.65;;;;;;;;;;5043387;28;20510;-74
2023/06/25 14:00:29;;;;;;;5.45;3.72;;;;;;;;;;5044207;28;20098;-74
2023/06/25 14:02:58;;;;;;;5.53;3.75;;;;;;;;;;5043951;28;20037;-74
2023/06/25 14:05:24;;;;;;;5.22;3.58;;;;;;;;;;5047083;28;20037;-74
2023/06/25 14:07:50;;;;;;;4.45;3.40;;;;;;;;;;5042054;28;20037;-74
2023/06/25 14:10:16;;;;;;;5.07;3.95;;;;;;;;;;5040822;28;20132;-74
2023/06/25 14:12:42;;;;;;;6.15;3.90;;;;;;;;;;5042230;28;20512;-74
2023/06/25 14:15:08;;;;;;;6.95;3.95;;;;;;;;;;5025811;28;20149;-73
2023/06/25 14:17:35;;;;;;;5.95;3.90;;;;;;;;;;5024470;28;20036;-74
2023/06/25 14:20:01;;;;;;;6.65;3.60;;;;;;;;;;5043020;28;20041;-75
2023/06/25 14:22:27;;;;;;;6.38;3.80;;;;;;;;;;5042205;28;20052;-75
2023/06/25 14:24:53;;;;;;;5.75;3.97;;;;;;;;;;5044405;28;20045;-74
2023/06/25 14:27:19;;;;;;;7.07;4.05;;;;;;;;;;5044390;28;20041;-75
2023/06/25 14:29:45;;;;;;;6.47;4.03;;;;;;;;;;5040232;28;20034;-74